• Join FlightAware (Why Join?)
  • Login
  • US Flag GB Flag 
07:14 EST


 

Airport Tracker/Info


-or-


 

Live Flight TrackerFlight Track Log ✈ N143DE ✈ 24-Oct-2013 ✈ KAPA - KRYY

Flight Track Log - Related Links

Times and Time Zones

All times are in EDT time to prevent confusion due to time zone crossing. See the N143DE flight status page for this flight to view local times or setup timezone preferences in your user account.

Time Position Orientation Groundspeed Altitude Reporting Facility
EDT Latitude Longitude Course Direction KTS MPH feet Rate Location/Type
14:10 39.5333 -104.8333 142° Southeast 165 190 7,400  Level Denver TRACON
14:11 39.5000 -104.8000 142° Southeast 205 236 8,000 300 Climbing Denver TRACON
14:12 39.4667 -104.7167 117° Southeast 239 275 8,000  Level Denver TRACON
14:13 39.4575 -104.6814 109° East 243 280 8,000  Level Denver Center
14:14 39.4464 -104.5925 99° East 252 290 8,000  Level Denver Center
14:15 39.4383 -104.4944 96° East 254 292 8,000 120 Level Denver Center
14:16 39.4631 -104.4117 69° East 248 285 8,300 720 Climbing Denver Center
14:17 39.4889 -104.3289 68° East 233 268 9,600 960 Climbing Denver Center
14:18 39.5150 -104.2569 65° Northeast 226 260 10,400 960 Climbing Denver Center
14:19 39.5508 -104.1808 59° Northeast 230 265 11,700 780 Climbing Denver Center
14:20 39.5839 -104.1078 60° Northeast 237 273 12,100 600 Climbing Denver Center
14:21 39.6203 -104.0278 59° Northeast 238 274 13,000 420 Climbing Denver Center
14:22 39.6564 -103.9475 60° Northeast 255 293 13,000 120 Level Denver Center
14:23 39.6875 -103.8544 66° East 264 304 13,300 480 Climbing Denver Center
14:24 39.6633 -103.7647 109° East 260 299 14,000 720 Climbing Denver Center
14:25 39.6489 -103.6806 103° East 253 291 14,900 900 Climbing Denver Center
14:26 39.6342 -103.5933 102° East 249 287 15,900 960 Climbing Denver Center
14:27 39.6144 -103.4900 104° East 247 284 17,000 1,080 Climbing Denver Center
14:28 39.5989 -103.4075 104° East 238 274 18,200 1,080 Climbing Denver Center
14:29 39.5844 -103.3322 104° East 220 253 19,300 1,020 Climbing Denver Center
14:30 39.5681 -103.2558 106° East 220 253 20,400 1,140 Climbing Denver Center
14:31 39.5525 -103.1772 104° East 210 242 21,700 1,020 Climbing Denver Center
14:32 39.5397 -103.1114 104° East 206 237 22,600 960 Climbing Denver Center
14:33 39.5208 -103.0256 106° East 205 236 23,800 960 Climbing Denver Center
14:34 39.5072 -102.9553 104° East 203 234 24,700 600 Climbing Denver Center
14:35 39.4928 -102.8825 104° East 208 239 25,100 180 Climbing Denver Center
14:36 39.4733 -102.7994 107° East 235 270 25,100  Level Denver Center
14:37 39.4556 -102.7081 104° East 260 299 25,100 -60 Level Denver Center
14:39 39.4339 -102.5953 104° East 269 310 25,000 -60 Descending Denver Center
14:40 39.4142 -102.5003 105° East 273 314 25,000  Level Denver Center
14:41 39.3931 -102.4050 106° East 275 316 25,000  Level Denver Center
14:42 39.3747 -102.3139 105° East 271 312 25,000  Level Denver Center
14:43 39.3525 -102.2069 105° East 274 315 25,000  Level Denver Center
14:44 39.3283 -102.1017 106° East 284 327 25,000  Level Denver Center
14:45 39.3092 -102.0100 105° East 276 318 25,000  Level Denver Center
14:46 39.2853 -101.9022 106° East 279 321 25,000  Level Denver Center
14:47 39.2667 -101.8103 105° East 277 319 25,000  Level Denver Center
14:48 39.2447 -101.7178 107° East 280 322 25,000  Level Denver Center
14:49 39.2192 -101.6075 107° East 281 323 25,000  Level Denver Center
14:50 39.1994 -101.5150 105° East 281 323 25,000  Level Denver Center
14:51 39.1767 -101.4072 105° East 281 323 25,000  Level Denver Center
14:52 39.1567 -101.3153 106° East 279 321 25,000  Level Denver Center
14:53 39.1325 -101.2061 106° East 284 327 25,000 300 Level Denver Center
14:54 39.1147 -101.1175 104° East 271 312 25,700 540 Climbing Denver Center
14:55 39.0922 -101.0183 106° East 259 298 26,200 420 Climbing Denver Center
14:56 39.0719 -100.9333 107° East 260 299 26,600 360 Climbing Denver Center
14:57 39.0508 -100.8350 105° East 257 296 27,000 180 Climbing Denver Center
14:58 39.0306 -100.7500 107° East 261 300 27,000  Level Denver Center
14:59 39.0067 -100.6436 106° East 275 316 27,000  Level Denver Center
15:00 38.9864 -100.5536 106° East 277 319 27,000  Level Denver Center
15:01 38.9619 -100.4436 106° East 284 327 27,000  Level Denver Center
15:02 38.9411 -100.3519 106° East 282 325 27,000  Level Denver Center
15:03 38.9197 -100.2600 107° East 282 325 27,000  Level Denver Center
15:04 38.8950 -100.1517 106° East 282 325 27,000  Level Denver Center
15:05 38.8733 -100.0597 107° East 281 323 27,000  Level Denver Center
15:06 38.8469 -99.9500 107° East 284 327 27,000  Level Denver Center
15:08 38.8258 -99.8581 106° East 284 327 27,000  Level Denver Center
15:09 38.8008 -99.7486 106° East 285 328 27,000  Level Denver Center
15:10 38.7781 -99.6536 107° East 289 333 27,000  Level Denver Center
15:11 38.7514 -99.5439 107° East 290 334 27,000  Level Denver Center
15:12 38.7297 -99.4497 106° East 289 333 27,000  Level Denver Center
15:13 38.7031 -99.3389 107° East 290 334 27,000  Level Denver Center
15:14 38.6753 -99.2300 108° East 290 334 27,000  Level Kansas City Center
15:15 38.6544 -99.1283 105° East 295 339 27,000  Level Kansas City Center
15:16 38.6219 -99.0133 110° East 286 329 27,000  Level Kansas City Center
15:17 38.5981 -98.9156 107° East 288 331 27,000  Level Kansas City Center
15:18 38.5775 -98.8144 105° East 293 337 27,000  Level Kansas City Center
15:19 38.5533 -98.7164 107° East 289 333 27,000  Level Kansas City Center
15:20 38.5278 -98.6172 108° East 292 336 27,100  Climbing Kansas City Center
15:21 38.5031 -98.5181 108° East 292 336 27,100  Level Kansas City Center
15:22 38.4739 -98.3992 107° East 292 336 27,100  Level Kansas City Center
15:23 38.4497 -98.3000 107° East 292 336 27,100  Level Kansas City Center
15:24 38.4244 -98.1994 108° East 295 339 27,100  Level Kansas City Center
15:25 38.3983 -98.0994 108° East 297 342 27,100  Level Kansas City Center
15:26 38.3742 -97.9992 107° East 295 339 27,100  Level Kansas City Center
15:27 38.3481 -97.8989 108° East 296 341 27,100  Level Kansas City Center
15:28 38.3217 -97.7983 108° East 297 342 27,100  Level Kansas City Center
15:29 38.2961 -97.6978 108° East 297 342 27,100  Level Kansas City Center
15:30 38.2656 -97.5772 108° East 297 342 27,100  Level Kansas City Center
15:32 38.2397 -97.4775 108° East 295 339 27,100  Level Kansas City Center
15:33 38.2139 -97.3769 108° East 298 343 27,100  Level Kansas City Center
15:34 38.1869 -97.2744 108° East 297 342 27,100  Level Kansas City Center
15:35 38.1600 -97.1767 109° East 299 344 27,100  Level Kansas City Center
15:36 38.1339 -97.0742 108° East 298 343 27,100  Level Kansas City Center
15:37 38.1083 -96.9761 108° East 300 345 27,100  Level Kansas City Center
15:38 38.0764 -96.8539 108° East 303 349 27,100  Level Kansas City Center
15:39 38.0500 -96.7533 108° East 300 345 27,100  Level Kansas City Center
15:40 38.0225 -96.6519 109° East 304 350 27,100  Level Kansas City Center
15:41 37.9956 -96.5500 109° East 304 350 27,100  Level Kansas City Center
15:42 37.9681 -96.4494 109° East 302 348 27,100  Level Kansas City Center
15:43 37.9414 -96.3483 108° East 303 349 27,100  Level Kansas City Center
15:44 37.9083 -96.2264 109° East 304 350 27,100  Level Kansas City Center
15:45 37.8800 -96.1256 110° East 305 351 27,100  Level Kansas City Center
15:46 37.8542 -96.0331 109° East 301 346 27,100  Level Kansas City Center
15:47 37.8253 -95.9322 110° East 303 349 27,100  Level Kansas City Center
15:48 37.7919 -95.8100 109° East 306 352 27,100  Level Kansas City Center
15:49 37.7633 -95.7061 109° East 312 359 27,100  Level Kansas City Center
15:50 37.7350 -95.6011 109° East 312 359 27,100  Level Kansas City Center
15:51 37.7064 -95.5014 110° East 307 353 27,100  Level Kansas City Center
15:52 37.6772 -95.3986 110° East 308 354 27,100  Level Kansas City Center
15:53 37.6486 -95.2967 109° East 308 354 27,100 -60 Level Kansas City Center
15:54 37.6131 -95.1706 110° East 313 360 27,000 -60 Descending Kansas City Center
15:55 37.5847 -95.0653 109° East 316 364 27,000  Level Kansas City Center
15:56 37.5536 -94.9631 111° Southeast 313 360 27,000  Level Kansas City Center
15:57 37.5256 -94.8617 109° East 309 356 27,000  Level Kansas City Center
15:58 37.4950 -94.7592 111° Southeast 309 356 27,000  Level Kansas City Center
15:59 37.4661 -94.6556 109° East 312 359 27,000  Level Kansas City Center
16:00 37.4364 -94.5539 110° East 309 356 27,000  Level Kansas City Center
16:02 37.4000 -94.4278 110° East 315 362 27,000  Level Kansas City Center
16:03 37.3697 -94.3244 110° East 316 364 27,000  Level Kansas City Center
16:04 37.3403 -94.2239 110° East 310 357 27,000  Level Kansas City Center
16:05 37.3094 -94.1211 111° Southeast 311 358 27,000  Level Kansas City Center
16:06 37.2781 -94.0133 110° East 316 364 27,000  Level Kansas City Center
16:07 37.2475 -93.9106 110° East 316 364 27,000  Level Kansas City Center
16:08 37.2169 -93.8067 110° East 316 364 27,000  Level Kansas City Center
16:09 37.1867 -93.7044 110° East 314 361 27,000  Level Kansas City Center
16:10 37.1494 -93.5808 111° Southeast 315 362 27,000  Level Kansas City Center
16:11 37.1183 -93.4761 110° East 318 366 27,000  Level Kansas City Center
16:12 37.0858 -93.3700 111° Southeast 321 369 27,000  Level Kansas City Center
16:13 37.0542 -93.2664 111° Southeast 322 371 27,000  Level Kansas City Center
16:14 37.0225 -93.1642 111° Southeast 317 365 27,000  Level Kansas City Center
16:15 36.9908 -93.0594 111° Southeast 319 367 27,000  Level Kansas City Center
16:16 36.9519 -92.9344 111° Southeast 320 368 27,000  Level Kansas City Center
16:17 36.9211 -92.8308 110° East 319 367 27,000  Level Kansas City Center
16:18 36.8892 -92.7269 111° Southeast 320 368 27,000  Level Kansas City Center
16:19 36.8569 -92.6244 111° Southeast 318 366 27,000  Level Kansas City Center
16:20 36.8253 -92.5200 111° Southeast 320 368 27,000  Level Kansas City Center
16:21 36.7931 -92.4172 111° Southeast 319 367 27,000  Level Kansas City Center
16:22 36.7611 -92.3119 111° Southeast 322 371 27,000  Level Kansas City Center
16:23 36.7217 -92.1894 112° Southeast 319 367 27,000  Level Kansas City Center
16:24 36.6883 -92.0881 112° Southeast 317 365 27,000  Level Kansas City Center
16:25 36.6553 -91.9811 111° Southeast 324 373 27,000  Level Kansas City Center
16:26 36.6225 -91.8758 111° Southeast 326 375 27,000  Level Kansas City Center
16:27 36.5897 -91.7739 112° Southeast 320 368 27,000  Level Kansas City Center
16:28 36.5558 -91.6667 111° Southeast 323 372 27,000  Level Kansas City Center
16:29 36.5158 -91.5419 112° Southeast 317 365 27,000  Level Memphis Center
16:30 36.4772 -91.4383 115° Southeast 317 365 27,000  Level Memphis Center
16:31 36.4467 -91.3347 110° East 317 365 27,000  Level Memphis Center
16:32 36.4100 -91.2336 114° Southeast 317 365 27,000  Level Memphis Center
16:33 36.3794 -91.1303 110° East 317 365 27,000  Level Memphis Center
16:34 36.3467 -91.0242 111° Southeast 317 365 27,000  Level Memphis Center
16:35 36.3117 -90.9211 113° Southeast 317 365 27,000  Level Memphis Center
16:36 36.2767 -90.8178 113° Southeast 317 365 27,000  Level Memphis Center
16:37 36.2414 -90.7119 112° Southeast 317 365 27,000  Level Memphis Center
16:38 36.2064 -90.6117 113° Southeast 317 365 27,000  Level Memphis Center
16:39 36.1711 -90.5086 113° Southeast 317 365 27,000  Level Memphis Center
16:40 36.1378 -90.4033 111° Southeast 317 365 27,000  Level Memphis Center
16:41 36.1022 -90.3006 113° Southeast 317 365 27,000  Level Memphis Center
16:42 36.0689 -90.1953 111° Southeast 317 365 27,000  Level Memphis Center
16:43 36.0311 -90.0925 114° Southeast 317 365 27,000  Level Memphis Center
16:44 35.9975 -89.9900 112° Southeast 317 365 27,000  Level Memphis Center
16:45 35.9639 -89.8878 112° Southeast 317 365 27,000  Level Memphis Center
16:46 35.9278 -89.7828 113° Southeast 317 365 27,000  Level Memphis Center
16:47 35.8939 -89.6806 112° Southeast 317 365 27,000  Level Memphis Center
16:48 35.8581 -89.5733 112° Southeast 317 365 27,000  Level Memphis Center
16:49 35.8197 -89.4711 115° Southeast 317 365 27,000  Level Memphis Center
16:50 35.7856 -89.3667 112° Southeast 322 371 27,000  Level Memphis Center
16:51 35.7492 -89.2647 114° Southeast 322 371 27,000  Level Memphis Center
16:52 35.7150 -89.1631 112° Southeast 322 371 27,000  Level Memphis Center
16:53 35.6806 -89.0586 112° Southeast 322 371 27,000  Level Memphis Center
16:54 35.6461 -88.9544 112° Southeast 328 377 27,000  Level Memphis Center
16:55 35.6072 -88.8531 115° Southeast 328 377 27,000  Level Memphis Center
16:56 35.5706 -88.7517 114° Southeast 328 377 27,000  Level Memphis Center
16:57 35.5358 -88.6503 113° Southeast 323 372 27,000  Level Memphis Center
16:58 35.5011 -88.5489 113° Southeast 323 372 27,000  Level Memphis Center
16:59 35.4639 -88.4478 114° Southeast 318 366 27,000  Level Memphis Center
17:00 35.4292 -88.3467 113° Southeast 318 366 27,000  Level Memphis Center
17:01 35.3919 -88.2481 115° Southeast 318 366 27,000  Level Memphis Center
17:02 35.3547 -88.1472 114° Southeast 312 359 27,000  Level Memphis Center
17:03 35.3194 -88.0439 113° Southeast 318 366 27,000  Level Memphis Center
17:04 35.2822 -87.9433 114° Southeast 318 366 27,000  Level Memphis Center
17:05 35.2444 -87.8400 114° Southeast 323 372 27,000  Level Memphis Center
17:06 35.2092 -87.7394 113° Southeast 323 372 27,000  Level Memphis Center
17:07 35.1714 -87.6392 115° Southeast 323 372 27,000  Level Memphis Center
17:08 35.1339 -87.5386 114° Southeast 318 366 27,000  Level Memphis Center
17:11 35.0508 -87.3117 114° Southeast 331 381 27,000  Level Atlanta Center
17:12 35.0139 -87.2089 114° Southeast 325 374 27,000  Level Atlanta Center
17:13 34.9769 -87.1086 114° Southeast 331 381 27,000  Level Atlanta Center
17:14 34.9375 -87.0108 116° Southeast 331 381 27,000  Level Atlanta Center
17:15 34.9003 -86.9108 114° Southeast 325 374 27,000 -300 Level Atlanta Center
17:16 34.8650 -86.8083 113° Southeast 325 374 26,500 -900 Descending Atlanta Center
17:17 34.8278 -86.6956 112° Southeast 335 386 25,300 -1,260 Descending Atlanta Center
17:18 34.7906 -86.5833 112° Southeast 347 399 24,000 -660 Descending Atlanta Center
17:19 34.7553 -86.4783 112° Southeast 347 399 24,000  Level Atlanta Center
17:20 34.7217 -86.3764 112° Southeast 336 387 24,000  Level Atlanta Center
17:21 34.6881 -86.2769 112° Southeast 324 373 24,000  Level Atlanta Center
17:22 34.6544 -86.1775 112° Southeast 319 367 24,000  Level Atlanta Center
17:23 34.6225 -86.0808 112° Southeast 319 367 24,000 -780 Level Atlanta Center
17:24 34.5867 -85.9817 114° Southeast 319 367 22,500 -1,740 Descending Atlanta Center
17:25 34.5508 -85.8747 112° Southeast 329 379 20,600 -1,860 Descending Atlanta Center
17:26 34.5125 -85.7706 114° Southeast 334 384 18,800 -1,620 Descending Atlanta Center
17:27 34.4786 -85.6692 112° Southeast 334 384 17,400 -1,500 Descending Atlanta Center
17:28 34.4422 -85.5678 113° Southeast 334 384 15,800 -1,500 Descending Atlanta Center
17:29 34.4100 -85.4714 112° Southeast 316 364 14,400 -1,260 Descending Atlanta Center
17:30 34.3756 -85.3678 112° Southeast 310 357 13,300 -1,020 Descending Atlanta Center
17:31 34.3453 -85.2792 112° Southeast 298 343 12,400 -900 Descending Atlanta Center
17:32 34.3147 -85.1906 113° Southeast 288 331 11,500 -900 Descending Atlanta Center
17:33 34.2822 -85.1072 115° Southeast 276 318 10,600 -1,020 Descending Atlanta Center
17:34 34.2536 -85.0239 113° Southeast 276 318 9,500 -1,020 Descending Atlanta Center
17:35 34.2250 -84.9433 113° Southeast 271 312 8,600 -780 Descending Atlanta Center
17:36 34.1983 -84.8700 114° Southeast 260 299 8,000 -780 Descending Atlanta Center
17:37 34.1614 -84.8094 126° Southeast 239 275 7,100 -1,440 Descending Atlanta Center
17:38 34.1325 -84.7389 116° Southeast 234 269 5,200 -1,560 Descending Atlanta Center
17:39 34.0931 -84.7086 148° Southeast 188 216 4,000 -600 Descending Atlanta Center
17:40 34.0533 -84.6958 165° South 155 178 4,000  Level Atlanta Center
17:41 34.0158 -84.6728 153° Southeast 150 173 4,000  Level Atlanta Center
17:42 33.9847 -84.6375 137° Southeast 150 173 4,000 -540 Level Atlanta Center
17:44 33.9833 -84.5500 91° East 139 160 2,500 -840 Descending Atlanta TRACON
17:45 34.0167 -84.5500 360° North 110 127 1,600 -900 Descending Atlanta TRACON
17:47 34.0000 -84.5833 337° Northwest  Level FlightAware Approximate
17:54 34.0132 -84.5971 337° Northwest  Level Estimated